PWSweather.com
Personal Weather Stations
Station Observations
IPORTUGA89
BarosaPT

BarosaPT

Lat: 39.754028, Lon: -8.843

Elevation: 98

Station Type: Davis Vp2

Latest ConditionsUpdated 10:59:16 PM GMT Sunday, Dec 9, 2018
Currently Today's Max Today's Min Today's Average
Temperature 54.1°F12.3°C 66.6°F19.2°C 39.2°F4.0°C 50.9°F10.5°C
Dew Point 52.7°F11.5°C 57.6°F14.2°C 37.9°F3.3°C 48.2°F9.0°C
Winds 2.0 mph NNW3.2 kmh NNW 4.9 mph -7.9 kmh - - 1.2 mph 1.9 kmh
Wind Gusts 4.0 mph6.4 kmh 8.9 mph14.3 kmh - -
Humidity 95% 96% 67% 91%
Pressure 30.46 in1031.5 mb 30.53 in1033.9 mb 30.44 in1030.8 mb -
Hour Temp Dew Point Humidity Winds Wind Gusts Pressure Precip Precip Rate Daily Precip Total
10:59 PM 54.1°F12.3°C 52.7°F11.5°C 95% 2.0 mph NNW3.2 kmh NNW 4.0 mph6.4 kmh 30.46 in1031.5 mb 0.00 in0.0 mm 0.00 in0.0 mm 0.00 in0.0 mm
10:49 PM 54.3°F12.4°C 52.9°F11.6°C 95% 2.0 mph N3.2 kmh N 2.9 mph4.7 kmh 30.46 in1031.5 mb 0.00 in0.0 mm 0.00 in0.0 mm 0.00 in0.0 mm
10:39 PM 54.7°F12.6°C 53.2°F11.8°C 95% 0.9 mph N1.4 kmh N 2.9 mph4.7 kmh 30.47 in1031.8 mb 0.00 in0.0 mm 0.00 in0.0 mm 0.00 in0.0 mm
10:28 PM 54.7°F12.6°C 53.2°F11.8°C 95% 2.0 mph N3.2 kmh N 2.9 mph4.7 kmh 30.47 in1031.8 mb 0.00 in0.0 mm 0.00 in0.0 mm 0.00 in0.0 mm
10:18 PM 54.7°F12.6°C 53.2°F11.8°C 95% 2.0 mph N3.2 kmh N 4.0 mph6.4 kmh 30.47 in1031.8 mb 0.00 in0.0 mm 0.00 in0.0 mm 0.00 in0.0 mm
10:08 PM 54.7°F12.6°C 53.2°F11.8°C 95% 2.9 mph N4.7 kmh N 4.0 mph6.4 kmh 30.47 in1031.8 mb 0.00 in0.0 mm 0.00 in0.0 mm 0.00 in0.0 mm
09:58 PM 54.9°F12.7°C 53.4°F11.9°C 95% 2.0 mph NE3.2 kmh NE 2.9 mph4.7 kmh 30.47 in1031.8 mb 0.00 in0.0 mm 0.00 in0.0 mm 0.00 in0.0 mm
09:48 PM 54.9°F12.7°C 53.4°F11.9°C 95% 2.9 mph NE4.7 kmh NE 4.0 mph6.4 kmh 30.47 in1031.8 mb 0.00 in0.0 mm 0.00 in0.0 mm 0.00 in0.0 mm
09:38 PM 54.9°F12.7°C 53.4°F11.9°C 95% 2.0 mph NE3.2 kmh NE 4.9 mph7.9 kmh 30.47 in1031.8 mb 0.00 in0.0 mm 0.00 in0.0 mm 0.00 in0.0 mm
09:28 PM 54.9°F12.7°C 53.4°F11.9°C 95% 2.0 mph NE3.2 kmh NE 2.9 mph4.7 kmh 30.47 in1031.8 mb 0.00 in0.0 mm 0.00 in0.0 mm 0.00 in0.0 mm
09:18 PM 55.0°F12.8°C 53.6°F12.0°C 95% 0.9 mph NNE1.4 kmh NNE 2.9 mph4.7 kmh 30.47 in1031.8 mb 0.00 in0.0 mm 0.00 in0.0 mm 0.00 in0.0 mm
09:07 PM 55.0°F12.8°C 53.6°F12.0°C 95% 0.9 mph NNE1.4 kmh NNE 2.9 mph4.7 kmh 30.47 in1031.8 mb 0.00 in0.0 mm 0.00 in0.0 mm 0.00 in0.0 mm
08:57 PM 55.0°F12.8°C 53.6°F12.0°C 95% Calm Calm 2.0 mph3.2 kmh 30.47 in1031.8 mb 0.00 in0.0 mm 0.00 in0.0 mm 0.00 in0.0 mm
08:47 PM 54.9°F12.7°C 53.4°F11.9°C 95% Calm Calm -- 30.47 in1031.8 mb 0.00 in0.0 mm 0.00 in0.0 mm 0.00 in0.0 mm
08:37 PM 54.9°F12.7°C 53.4°F11.9°C 95% Calm Calm -- 30.47 in1031.8 mb 0.00 in0.0 mm 0.00 in0.0 mm 0.00 in0.0 mm
08:27 PM 54.9°F12.7°C 53.4°F11.9°C 95% Calm Calm -- 30.47 in1031.8 mb 0.00 in0.0 mm 0.00 in0.0 mm 0.00 in0.0 mm
08:17 PM 55.0°F12.8°C 53.6°F12.0°C 95% 0.9 mph NNW1.4 kmh NNW 2.0 mph3.2 kmh 30.47 in1031.8 mb 0.00 in0.0 mm 0.00 in0.0 mm 0.00 in0.0 mm
08:07 PM 54.9°F12.7°C 53.4°F11.9°C 95% 2.0 mph NNW3.2 kmh NNW 2.9 mph4.7 kmh 30.48 in1032.2 mb 0.00 in0.0 mm 0.00 in0.0 mm 0.00 in0.0 mm
07:57 PM 54.9°F12.7°C 53.4°F11.9°C 95% 0.9 mph NNW1.4 kmh NNW 2.0 mph3.2 kmh 30.48 in1032.2 mb 0.00 in0.0 mm 0.00 in0.0 mm 0.00 in0.0 mm
07:47 PM 54.9°F12.7°C 53.4°F11.9°C 95% Calm Calm 0.9 mph1.4 kmh 30.48 in1032.2 mb 0.00 in0.0 mm 0.00 in0.0 mm 0.00 in0.0 mm
07:36 PM 54.9°F12.7°C 53.4°F11.9°C 95% 0.9 mph NNW1.4 kmh NNW 2.9 mph4.7 kmh 30.48 in1032.2 mb 0.00 in0.0 mm 0.00 in0.0 mm 0.00 in0.0 mm
07:26 PM 54.9°F12.7°C 53.4°F11.9°C 95% 2.0 mph NNW3.2 kmh NNW 2.9 mph4.7 kmh 30.48 in1032.2 mb 0.00 in0.0 mm 0.00 in0.0 mm 0.00 in0.0 mm
07:16 PM 55.0°F12.8°C 53.4°F11.9°C 94% 2.0 mph NW3.2 kmh NW 4.0 mph6.4 kmh 30.48 in1032.2 mb 0.00 in0.0 mm 0.00 in0.0 mm 0.00 in0.0 mm
07:06 PM 55.0°F12.8°C 53.4°F11.9°C 94% 2.0 mph NW3.2 kmh NW 4.0 mph6.4 kmh 30.48 in1032.2 mb 0.00 in0.0 mm 0.00 in0.0 mm 0.00 in0.0 mm
06:56 PM 55.0°F12.8°C 53.4°F11.9°C 94% 2.0 mph N3.2 kmh N 4.9 mph7.9 kmh 30.48 in1032.2 mb 0.00 in0.0 mm 0.00 in0.0 mm 0.00 in0.0 mm
06:46 PM 55.2°F12.9°C 53.6°F12.0°C 94% 2.0 mph N3.2 kmh N 4.9 mph7.9 kmh 30.47 in1031.8 mb 0.00 in0.0 mm 0.00 in0.0 mm 0.00 in0.0 mm
06:36 PM 55.6°F13.1°C 54.0°F12.2°C 94% 0.9 mph NW1.4 kmh NW 2.9 mph4.7 kmh 30.47 in1031.8 mb 0.00 in0.0 mm 0.00 in0.0 mm 0.00 in0.0 mm
06:26 PM 55.6°F13.1°C 54.0°F12.2°C 94% 2.0 mph NW3.2 kmh NW 4.0 mph6.4 kmh 30.47 in1031.8 mb 0.00 in0.0 mm 0.00 in0.0 mm 0.00 in0.0 mm
06:16 PM 55.6°F13.1°C 54.0°F12.2°C 94% 2.9 mph NNW4.7 kmh NNW 8.1 mph13.0 kmh 30.47 in1031.8 mb 0.00 in0.0 mm 0.00 in0.0 mm 0.00 in0.0 mm
06:06 PM 55.8°F13.2°C 53.8°F12.1°C 93% 2.9 mph NW4.7 kmh NW 6.9 mph11.1 kmh 30.47 in1031.8 mb 0.00 in0.0 mm 0.00 in0.0 mm 0.00 in0.0 mm
05:56 PM 55.9°F13.3°C 54.0°F12.2°C 93% 2.0 mph NW3.2 kmh NW 2.9 mph4.7 kmh 30.47 in1031.8 mb 0.00 in0.0 mm 0.00 in0.0 mm 0.00 in0.0 mm
05:46 PM 55.9°F13.3°C 54.0°F12.2°C 93% 0.9 mph N1.4 kmh N 2.9 mph4.7 kmh 30.46 in1031.5 mb 0.00 in0.0 mm 0.00 in0.0 mm 0.00 in0.0 mm
05:36 PM 56.1°F13.4°C 54.1°F12.3°C 93% 2.0 mph N3.2 kmh N 4.9 mph7.9 kmh 30.46 in1031.5 mb 0.00 in0.0 mm 0.00 in0.0 mm 0.00 in0.0 mm
05:26 PM 56.3°F13.5°C 54.3°F12.4°C 93% 2.0 mph NW3.2 kmh NW 4.0 mph6.4 kmh 30.46 in1031.5 mb 0.00 in0.0 mm 0.00 in0.0 mm 0.00 in0.0 mm
05:16 PM 56.5°F13.6°C 54.1°F12.3°C 92% 2.9 mph NW4.7 kmh NW 4.9 mph7.9 kmh 30.46 in1031.5 mb 0.00 in0.0 mm 0.00 in0.0 mm 0.00 in0.0 mm
05:05 PM 56.7°F13.7°C 54.1°F12.3°C 91% 2.9 mph W4.7 kmh W 6.9 mph11.1 kmh 30.45 in1031.2 mb 0.00 in0.0 mm 0.00 in0.0 mm 0.00 in0.0 mm
04:55 PM 57.2°F14.0°C 54.3°F12.4°C 90% 2.0 mph W3.2 kmh W 4.0 mph6.4 kmh 30.45 in1031.2 mb 0.00 in0.0 mm 0.00 in0.0 mm 0.00 in0.0 mm
04:45 PM 57.7°F14.3°C 54.5°F12.5°C 89% 2.9 mph NW4.7 kmh NW 8.1 mph13.0 kmh 30.45 in1031.2 mb 0.00 in0.0 mm 0.00 in0.0 mm 0.00 in0.0 mm
04:35 PM 58.8°F14.9°C 55.0°F12.8°C 87% 2.9 mph NW4.7 kmh NW 6.0 mph9.7 kmh 30.45 in1031.2 mb 0.00 in0.0 mm 0.00 in0.0 mm 0.00 in0.0 mm
04:25 PM 59.9°F15.5°C 55.8°F13.2°C 86% 2.9 mph NNW4.7 kmh NNW 4.9 mph7.9 kmh 30.45 in1031.2 mb 0.00 in0.0 mm 0.00 in0.0 mm 0.00 in0.0 mm
04:15 PM 60.8°F16.0°C 56.3°F13.5°C 85% 2.9 mph NW4.7 kmh NW 6.0 mph9.7 kmh 30.45 in1031.2 mb 0.00 in0.0 mm 0.00 in0.0 mm 0.00 in0.0 mm
04:05 PM 61.2°F16.2°C 56.3°F13.5°C 84% 4.0 mph NNW6.4 kmh NNW 8.9 mph14.3 kmh 30.45 in1031.2 mb 0.00 in0.0 mm 0.00 in0.0 mm 0.00 in0.0 mm
03:55 PM 62.2°F16.8°C 57.0°F13.9°C 83% 4.9 mph NW7.9 kmh NW 8.9 mph14.3 kmh 30.45 in1031.2 mb 0.00 in0.0 mm 0.00 in0.0 mm 0.00 in0.0 mm
03:45 PM 63.5°F17.5°C 57.2°F14.0°C 80% 4.9 mph NW7.9 kmh NW 8.9 mph14.3 kmh 30.45 in1031.2 mb 0.00 in0.0 mm 0.00 in0.0 mm 0.00 in0.0 mm
03:35 PM 64.9°F18.3°C 57.6°F14.2°C 77% 4.9 mph NW7.9 kmh NW 8.1 mph13.0 kmh 30.45 in1031.2 mb 0.00 in0.0 mm 0.00 in0.0 mm 0.00 in0.0 mm
03:25 PM 65.7°F18.7°C 56.3°F13.5°C 72% 2.9 mph NW4.7 kmh NW 8.1 mph13.0 kmh 30.44 in1030.8 mb 0.00 in0.0 mm 0.00 in0.0 mm 0.00 in0.0 mm
03:15 PM 65.7°F18.7°C 55.9°F13.3°C 71% 2.9 mph NNW4.7 kmh NNW 4.9 mph7.9 kmh 30.44 in1030.8 mb 0.00 in0.0 mm 0.00 in0.0 mm 0.00 in0.0 mm
03:05 PM 66.0°F18.9°C 55.6°F13.1°C 69% 2.9 mph N4.7 kmh N 6.0 mph9.7 kmh 30.44 in1030.8 mb 0.00 in0.0 mm 0.00 in0.0 mm 0.00 in0.0 mm
02:55 PM 66.6°F19.2°C 55.2°F12.9°C 67% 2.9 mph NE4.7 kmh NE 6.0 mph9.7 kmh 30.44 in1030.8 mb 0.00 in0.0 mm 0.00 in0.0 mm 0.00 in0.0 mm
02:45 PM 66.6°F19.2°C 55.2°F12.9°C 67% 4.0 mph 6.4 kmh 8.1 mph13.0 kmh 30.44 in1030.8 mb 0.00 in0.0 mm 0.00 in0.0 mm 0.00 in0.0 mm
02:35 PM 66.6°F19.2°C 56.1°F13.4°C 69% 2.9 mph NNE4.7 kmh NNE 6.0 mph9.7 kmh 30.45 in1031.2 mb 0.00 in0.0 mm 0.00 in0.0 mm 0.00 in0.0 mm
02:25 PM 66.2°F19.0°C 56.1°F13.4°C 70% 2.9 mph 4.7 kmh 6.0 mph9.7 kmh 30.45 in1031.2 mb 0.00 in0.0 mm 0.00 in0.0 mm 0.00 in0.0 mm
02:15 PM 65.8°F18.8°C 55.4°F13.0°C 69% 2.9 mph N4.7 kmh N 8.1 mph13.0 kmh 30.45 in1031.2 mb 0.00 in0.0 mm 0.00 in0.0 mm 0.00 in0.0 mm
02:05 PM 65.7°F18.7°C 55.6°F13.1°C 70% 2.9 mph N4.7 kmh N 6.0 mph9.7 kmh 30.45 in1031.2 mb 0.00 in0.0 mm 0.00 in0.0 mm 0.00 in0.0 mm
01:55 PM 65.5°F18.6°C 55.4°F13.0°C 70% 4.0 mph N6.4 kmh N 6.9 mph11.1 kmh 30.46 in1031.5 mb 0.00 in0.0 mm 0.00 in0.0 mm 0.00 in0.0 mm
01:45 PM 65.1°F18.4°C 55.4°F13.0°C 71% 4.0 mph NW6.4 kmh NW 8.1 mph13.0 kmh 30.46 in1031.5 mb 0.00 in0.0 mm 0.00 in0.0 mm 0.00 in0.0 mm
01:35 PM 64.9°F18.3°C 55.8°F13.2°C 72% 2.9 mph NW4.7 kmh NW 8.1 mph13.0 kmh 30.46 in1031.5 mb 0.00 in0.0 mm 0.00 in0.0 mm 0.00 in0.0 mm
01:25 PM 64.2°F17.9°C 55.4°F13.0°C 73% 2.9 mph NW4.7 kmh NW 6.0 mph9.7 kmh 30.47 in1031.8 mb 0.00 in0.0 mm 0.00 in0.0 mm 0.00 in0.0 mm
01:15 PM 63.3°F17.4°C 54.9°F12.7°C 74% 2.9 mph N4.7 kmh N 6.0 mph9.7 kmh 30.47 in1031.8 mb 0.00 in0.0 mm 0.00 in0.0 mm 0.00 in0.0 mm
01:04 PM 63.1°F17.3°C 55.0°F12.8°C 75% 2.0 mph NNE3.2 kmh NNE 4.9 mph7.9 kmh 30.47 in1031.8 mb 0.00 in0.0 mm 0.00 in0.0 mm 0.00 in0.0 mm
12:54 PM 62.2°F16.8°C 54.5°F12.5°C 76% 2.9 mph NE4.7 kmh NE 6.9 mph11.1 kmh 30.47 in1031.8 mb 0.00 in0.0 mm 0.00 in0.0 mm 0.00 in0.0 mm
12:44 PM 62.1°F16.7°C 54.7°F12.6°C 77% 2.9 mph NW4.7 kmh NW 8.1 mph13.0 kmh 30.48 in1032.2 mb 0.00 in0.0 mm 0.00 in0.0 mm 0.00 in0.0 mm
12:34 PM 61.5°F16.4°C 54.7°F12.6°C 78% 2.9 mph NW4.7 kmh NW 8.1 mph13.0 kmh 30.49 in1032.5 mb 0.00 in0.0 mm 0.00 in0.0 mm 0.00 in0.0 mm
12:24 PM 61.2°F16.2°C 54.9°F12.7°C 80% 2.0 mph NE3.2 kmh NE 6.0 mph9.7 kmh 30.49 in1032.5 mb 0.00 in0.0 mm 0.00 in0.0 mm 0.00 in0.0 mm
12:14 PM 60.3°F15.7°C 55.0°F12.8°C 83% 2.9 mph 4.7 kmh 8.1 mph13.0 kmh 30.49 in1032.5 mb 0.00 in0.0 mm 0.00 in0.0 mm 0.00 in0.0 mm
12:04 PM 59.4°F15.2°C 54.9°F12.7°C 85% 4.0 mph NNE6.4 kmh NNE 8.1 mph13.0 kmh 30.50 in1032.8 mb 0.00 in0.0 mm 0.00 in0.0 mm 0.00 in0.0 mm
11:54 AM 58.3°F14.6°C 55.4°F13.0°C 90% 2.0 mph NNW3.2 kmh NNW 6.0 mph9.7 kmh 30.50 in1032.8 mb 0.00 in0.0 mm 0.00 in0.0 mm 0.00 in0.0 mm
11:44 AM 56.8°F13.8°C 54.9°F12.7°C 93% Calm Calm 2.9 mph4.7 kmh 30.51 in1033.2 mb 0.00 in0.0 mm 0.00 in0.0 mm 0.00 in0.0 mm
11:34 AM 56.1°F13.4°C 54.5°F12.5°C 94% 0.9 mph E1.4 kmh E 2.9 mph4.7 kmh 30.51 in1033.2 mb 0.00 in0.0 mm 0.00 in0.0 mm 0.00 in0.0 mm
11:24 AM 55.6°F13.1°C 54.1°F12.3°C 95% 0.9 mph E1.4 kmh E 2.0 mph3.2 kmh 30.51 in1033.2 mb 0.00 in0.0 mm 0.00 in0.0 mm 0.00 in0.0 mm
11:14 AM 54.7°F12.6°C 53.2°F11.8°C 95% Calm Calm 2.0 mph3.2 kmh 30.51 in1033.2 mb 0.00 in0.0 mm 0.00 in0.0 mm 0.00 in0.0 mm
11:04 AM 53.8°F12.1°C 52.7°F11.5°C 96% Calm Calm 0.9 mph1.4 kmh 30.52 in1033.5 mb 0.00 in0.0 mm 0.00 in0.0 mm 0.00 in0.0 mm
10:54 AM 52.5°F11.4°C 51.4°F10.8°C 96% 0.9 mph E1.4 kmh E 2.0 mph3.2 kmh 30.52 in1033.5 mb 0.00 in0.0 mm 0.00 in0.0 mm 0.00 in0.0 mm
10:43 AM 51.4°F10.8°C 50.4°F10.2°C 96% Calm Calm 2.0 mph3.2 kmh 30.52 in1033.5 mb 0.00 in0.0 mm 0.00 in0.0 mm 0.00 in0.0 mm
10:33 AM 51.1°F10.6°C 50.0°F10.0°C 96% Calm Calm 2.0 mph3.2 kmh 30.52 in1033.5 mb 0.00 in0.0 mm 0.00 in0.0 mm 0.00 in0.0 mm
10:23 AM 50.0°F10.0°C 48.9°F9.4°C 96% Calm Calm 2.0 mph3.2 kmh 30.52 in1033.5 mb 0.00 in0.0 mm 0.00 in0.0 mm 0.00 in0.0 mm
10:13 AM 49.1°F9.5°C 48.0°F8.9°C 96% Calm Calm 0.9 mph1.4 kmh 30.52 in1033.5 mb 0.00 in0.0 mm 0.00 in0.0 mm 0.00 in0.0 mm
10:03 AM 47.7°F8.7°C 46.6°F8.1°C 96% Calm Calm 2.0 mph3.2 kmh 30.52 in1033.5 mb 0.00 in0.0 mm 0.00 in0.0 mm 0.00 in0.0 mm
09:53 AM 46.6°F8.1°C 45.5°F7.5°C 96% Calm Calm 0.9 mph1.4 kmh 30.53 in1033.9 mb 0.00 in0.0 mm 0.00 in0.0 mm 0.00 in0.0 mm
09:43 AM 45.5°F7.5°C 44.4°F6.9°C 96% Calm Calm -- 30.53 in1033.9 mb 0.00 in0.0 mm 0.00 in0.0 mm 0.00 in0.0 mm
09:33 AM 44.8°F7.1°C 43.7°F6.5°C 96% Calm Calm 0.9 mph1.4 kmh 30.53 in1033.9 mb 0.00 in0.0 mm 0.00 in0.0 mm 0.00 in0.0 mm
09:23 AM 44.8°F7.1°C 43.7°F6.5°C 96% Calm Calm -- 30.53 in1033.9 mb 0.00 in0.0 mm 0.00 in0.0 mm 0.00 in0.0 mm
09:13 AM 43.9°F6.6°C 42.8°F6.0°C 96% Calm Calm 0.9 mph1.4 kmh 30.53 in1033.9 mb 0.00 in0.0 mm 0.00 in0.0 mm 0.00 in0.0 mm
09:02 AM 43.2°F6.2°C 42.1°F5.6°C 96% Calm Calm 0.9 mph1.4 kmh 30.53 in1033.9 mb 0.00 in0.0 mm 0.00 in0.0 mm 0.00 in0.0 mm
08:52 AM 42.6°F5.9°C 41.5°F5.3°C 96% Calm Calm 0.9 mph1.4 kmh 30.53 in1033.9 mb 0.00 in0.0 mm 0.00 in0.0 mm 0.00 in0.0 mm
08:42 AM 42.3°F5.7°C 41.2°F5.1°C 96% Calm Calm 0.9 mph1.4 kmh 30.53 in1033.9 mb 0.00 in0.0 mm 0.00 in0.0 mm 0.00 in0.0 mm
08:32 AM 41.2°F5.1°C 40.1°F4.5°C 96% Calm Calm 0.9 mph1.4 kmh 30.53 in1033.9 mb 0.00 in0.0 mm 0.00 in0.0 mm 0.00 in0.0 mm
08:22 AM 40.5°F4.7°C 39.4°F4.1°C 96% Calm Calm 2.0 mph3.2 kmh 30.53 in1033.9 mb 0.00 in0.0 mm 0.00 in0.0 mm 0.00 in0.0 mm
08:12 AM 39.9°F4.4°C 38.8°F3.8°C 96% Calm Calm 2.0 mph3.2 kmh 30.53 in1033.9 mb 0.00 in0.0 mm 0.00 in0.0 mm 0.00 in0.0 mm
08:02 AM 39.6°F4.2°C 38.5°F3.6°C 96% 0.9 mph WSW1.4 kmh WSW 4.0 mph6.4 kmh 30.53 in1033.9 mb 0.00 in0.0 mm 0.00 in0.0 mm 0.00 in0.0 mm
07:52 AM 39.2°F4.0°C 37.9°F3.3°C 95% Calm Calm 4.0 mph6.4 kmh 30.53 in1033.9 mb 0.00 in0.0 mm 0.00 in0.0 mm 0.00 in0.0 mm
07:42 AM 39.2°F4.0°C 38.1°F3.4°C 96% Calm Calm -- 30.52 in1033.5 mb 0.00 in0.0 mm 0.00 in0.0 mm 0.00 in0.0 mm
07:32 AM 39.4°F4.1°C 38.1°F3.4°C 95% Calm Calm -- 30.53 in1033.9 mb 0.00 in0.0 mm 0.00 in0.0 mm 0.00 in0.0 mm
07:22 AM 39.6°F4.2°C 38.3°F3.5°C 95% Calm Calm -- 30.52 in1033.5 mb 0.00 in0.0 mm 0.00 in0.0 mm 0.00 in0.0 mm
07:12 AM 39.7°F4.3°C 38.7°F3.7°C 96% Calm Calm -- 30.52 in1033.5 mb 0.00 in0.0 mm 0.00 in0.0 mm 0.00 in0.0 mm
07:02 AM 39.9°F4.4°C 38.7°F3.7°C 95% Calm Calm -- 30.52 in1033.5 mb 0.00 in0.0 mm 0.00 in0.0 mm 0.00 in0.0 mm
06:42 AM 40.6°F4.8°C 39.6°F4.2°C 96% Calm Calm -- 30.52 in1033.5 mb 0.00 in0.0 mm 0.00 in0.0 mm 0.00 in0.0 mm
06:31 AM 40.6°F4.8°C 39.4°F4.1°C 95% Calm Calm -- 30.51 in1033.2 mb 0.00 in0.0 mm 0.00 in0.0 mm 0.00 in0.0 mm
06:21 AM 40.6°F4.8°C 39.4°F4.1°C 95% Calm Calm -- 30.51 in1033.2 mb 0.00 in0.0 mm 0.00 in0.0 mm 0.00 in0.0 mm
06:11 AM 40.6°F4.8°C 39.4°F4.1°C 95% Calm Calm -- 30.50 in1032.8 mb 0.00 in0.0 mm 0.00 in0.0 mm 0.00 in0.0 mm
06:01 AM 40.6°F4.8°C 39.4°F4.1°C 95% Calm Calm -- 30.50 in1032.8 mb 0.00 in0.0 mm 0.00 in0.0 mm 0.00 in0.0 mm
05:51 AM 40.8°F4.9°C 39.6°F4.2°C 95% Calm Calm -- 30.50 in1032.8 mb 0.00 in0.0 mm 0.00 in0.0 mm 0.00 in0.0 mm
05:41 AM 40.8°F4.9°C 39.6°F4.2°C 95% Calm Calm -- 30.50 in1032.8 mb 0.00 in0.0 mm 0.00 in0.0 mm 0.00 in0.0 mm
05:30 AM 41.2°F5.1°C 39.9°F4.4°C 95% Calm Calm -- 30.50 in1032.8 mb 0.00 in0.0 mm 0.00 in0.0 mm 0.00 in0.0 mm
05:20 AM 41.2°F5.1°C 39.9°F4.4°C 95% Calm Calm -- 30.49 in1032.5 mb 0.00 in0.0 mm 0.00 in0.0 mm 0.00 in0.0 mm
05:10 AM 41.4°F5.2°C 40.1°F4.5°C 95% Calm Calm -- 30.50 in1032.8 mb 0.00 in0.0 mm 0.00 in0.0 mm 0.00 in0.0 mm
05:00 AM 41.5°F5.3°C 40.3°F4.6°C 95% Calm Calm -- 30.50 in1032.8 mb 0.00 in0.0 mm 0.00 in0.0 mm 0.00 in0.0 mm
04:50 AM 41.9°F5.5°C 40.6°F4.8°C 95% Calm Calm -- 30.50 in1032.8 mb 0.00 in0.0 mm 0.00 in0.0 mm 0.00 in0.0 mm
04:40 AM 42.3°F5.7°C 41.0°F5.0°C 95% Calm Calm -- 30.50 in1032.8 mb 0.00 in0.0 mm 0.00 in0.0 mm 0.00 in0.0 mm
04:30 AM 42.4°F5.8°C 41.2°F5.1°C 95% Calm Calm -- 30.50 in1032.8 mb 0.00 in0.0 mm 0.00 in0.0 mm 0.00 in0.0 mm
04:20 AM 42.4°F5.8°C 41.2°F5.1°C 95% Calm Calm -- 30.50 in1032.8 mb 0.00 in0.0 mm 0.00 in0.0 mm 0.00 in0.0 mm
04:09 AM 42.4°F5.8°C 41.2°F5.1°C 95% Calm Calm -- 30.50 in1032.8 mb 0.00 in0.0 mm 0.00 in0.0 mm 0.00 in0.0 mm
03:59 AM 42.4°F5.8°C 41.2°F5.1°C 95% Calm Calm -- 30.51 in1033.2 mb 0.00 in0.0 mm 0.00 in0.0 mm 0.00 in0.0 mm
03:49 AM 42.6°F5.9°C 41.4°F5.2°C 95% Calm Calm -- 30.51 in1033.2 mb 0.00 in0.0 mm 0.00 in0.0 mm 0.00 in0.0 mm
03:39 AM 42.6°F5.9°C 41.5°F5.3°C 96% Calm Calm -- 30.51 in1033.2 mb 0.00 in0.0 mm 0.00 in0.0 mm 0.00 in0.0 mm
03:29 AM 42.6°F5.9°C 41.4°F5.2°C 95% Calm Calm -- 30.51 in1033.2 mb 0.00 in0.0 mm 0.00 in0.0 mm 0.00 in0.0 mm
03:19 AM 42.3°F5.7°C 41.2°F5.1°C 96% Calm Calm -- 30.51 in1033.2 mb 0.00 in0.0 mm 0.00 in0.0 mm 0.00 in0.0 mm
03:09 AM 41.9°F5.5°C 40.6°F4.8°C 95% Calm Calm 2.0 mph3.2 kmh 30.51 in1033.2 mb 0.00 in0.0 mm 0.00 in0.0 mm 0.00 in0.0 mm
02:58 AM 41.4°F5.2°C 40.1°F4.5°C 95% Calm Calm 0.9 mph1.4 kmh 30.52 in1033.5 mb 0.00 in0.0 mm 0.00 in0.0 mm 0.00 in0.0 mm
02:48 AM 41.4°F5.2°C 40.1°F4.5°C 95% Calm Calm -- 30.52 in1033.5 mb 0.00 in0.0 mm 0.00 in0.0 mm 0.00 in0.0 mm
02:38 AM 41.4°F5.2°C 40.1°F4.5°C 95% Calm Calm -- 30.52 in1033.5 mb 0.00 in0.0 mm 0.00 in0.0 mm 0.00 in0.0 mm
02:28 AM 41.2°F5.1°C 39.9°F4.4°C 95% Calm Calm -- 30.52 in1033.5 mb 0.00 in0.0 mm 0.00 in0.0 mm 0.00 in0.0 mm
02:18 AM 41.2°F5.1°C 39.9°F4.4°C 95% Calm Calm -- 30.52 in1033.5 mb 0.00 in0.0 mm 0.00 in0.0 mm 0.00 in0.0 mm
02:08 AM 41.4°F5.2°C 40.1°F4.5°C 95% Calm Calm -- 30.52 in1033.5 mb 0.00 in0.0 mm 0.00 in0.0 mm 0.00 in0.0 mm
01:58 AM 41.4°F5.2°C 40.1°F4.5°C 95% Calm Calm -- 30.52 in1033.5 mb 0.00 in0.0 mm 0.00 in0.0 mm 0.00 in0.0 mm
01:48 AM 41.4°F5.2°C 40.1°F4.5°C 95% Calm Calm -- 30.51 in1033.2 mb 0.00 in0.0 mm 0.00 in0.0 mm 0.00 in0.0 mm
01:37 AM 41.2°F5.1°C 39.9°F4.4°C 95% Calm Calm -- 30.51 in1033.2 mb 0.00 in0.0 mm 0.00 in0.0 mm 0.00 in0.0 mm
01:27 AM 40.8°F4.9°C 39.6°F4.2°C 95% Calm Calm -- 30.51 in1033.2 mb 0.00 in0.0 mm 0.00 in0.0 mm 0.00 in0.0 mm
01:17 AM 40.8°F4.9°C 39.6°F4.2°C 95% Calm Calm -- 30.51 in1033.2 mb 0.00 in0.0 mm 0.00 in0.0 mm 0.00 in0.0 mm
01:07 AM 40.8°F4.9°C 39.6°F4.2°C 95% Calm Calm -- 30.51 in1033.2 mb 0.00 in0.0 mm 0.00 in0.0 mm 0.00 in0.0 mm
12:57 AM 41.2°F5.1°C 39.9°F4.4°C 95% Calm Calm -- 30.51 in1033.2 mb 0.00 in0.0 mm 0.00 in0.0 mm 0.00 in0.0 mm
12:47 AM 41.4°F5.2°C 40.1°F4.5°C 95% Calm Calm -- 30.51 in1033.2 mb 0.00 in0.0 mm 0.00 in0.0 mm 0.00 in0.0 mm
12:36 AM 41.5°F5.3°C 40.3°F4.6°C 95% Calm Calm -- 30.51 in1033.2 mb 0.00 in0.0 mm 0.00 in0.0 mm 0.00 in0.0 mm
12:26 AM 41.5°F5.3°C 40.3°F4.6°C 95% Calm Calm -- 30.52 in1033.5 mb 0.00 in0.0 mm 0.00 in0.0 mm 0.00 in0.0 mm
12:16 AM 41.7°F5.4°C 40.5°F4.7°C 95% Calm Calm -- 30.52 in1033.5 mb 0.00 in0.0 mm 0.00 in0.0 mm 0.00 in0.0 mm
12:06 AM 42.1°F5.6°C 40.8°F4.9°C 95% Calm Calm -- 30.52 in1033.5 mb 0.00 in0.0 mm 0.00 in0.0 mm 0.00 in0.0 mm